Flight Track Log - Related Links

Times and Time Zones

All times are in EDT time to prevent confusion due to time zone crossing. See the N298EU flight status page for this flight to view local times or setup timezone preferences in your user account.

Time Position Orientation Groundspeed Altitude Reporting Facility
EDT Latitude Longitude Course Direction KTS MPH feet Rate Location/Type
Thu 11:58:02 AM 41.6417 -73.1622 240° Southwest 154 177 8,500  Level Boston Center
Thu 11:58:57 AM 41.6225 -73.2064 240° Southwest 157 181 8,500 -47 Level Boston Center
Thu 12:00:10 PM 41.5950 -73.2672 239° Southwest 159 183 8,400  Descending Boston Center
Thu 12:00:42 PM 41.5886 -73.2839 243° Southwest 137 158 8,500 65 Climbing Boston Center
Thu 12:01:42 PM 41.5611 -73.3417 238° Southwest 156 180 8,500  Level Boston Center
Thu 12:02:42 PM 41.5400 -73.3886 239° Southwest 162 186 8,500  Level Boston Center
Thu 12:03:42 PM 41.5144 -73.4436 238° Southwest 162 186 8,500  Level Boston Center
Thu 12:04:42 PM 41.4931 -73.4850 235° Southwest 162 186 8,500  Level Boston Center
Thu 12:06:20 PM 41.4500 -73.5667 235° Southwest 156 180 8,500  Level New York TRACON
Thu 12:07:20 PM 41.4333 -73.6167 246° West 156 180 8,500  Level New York TRACON
Thu 12:08:20 PM 41.4000 -73.6667 228° Southwest 162 186 8,500  Level New York TRACON
Thu 12:09:20 PM 41.3833 -73.7167 246° West 163 188 8,500 -48 Level New York TRACON
Thu 12:14:37 PM 41.2550 -73.9870 246° West 158 182 8,200 -53 Descending FlightAware ADS-B
Thu 12:15:02 PM 41.2460 -74.0040 235° Southwest 158 182 8,200  Level FlightAware ADS-B
Thu 12:15:27 PM 41.2342 -74.0294 238° Southwest 161 185 8,200  Level FlightAware ADS-B
Thu 12:16:03 PM 41.2200 -74.0580 237° Southwest 160 184 8,200  Level FlightAware ADS-B
Thu 12:16:32 PM 41.2090 -74.0820 239° Southwest 160 184 8,200  Level FlightAware ADS-B
Thu 12:17:03 PM 41.1980 -74.1050 238° Southwest 160 184 8,200  Level FlightAware ADS-B
Thu 12:17:31 PM 41.1880 -74.1240 235° Southwest 160 184 8,200  Level FlightAware ADS-B
Thu 12:17:56 PM 41.1800 -74.1420 239° Southwest 160 184 8,200  Level FlightAware ADS-B
Thu 12:18:20 PM 41.1720 -74.1590 238° Southwest 160 184 8,200  Level FlightAware ADS-B
Thu 12:22:07 PM 41.0730 -74.3660 238° Southwest 163 188 8,200  Level FlightAware ADS-B
Thu 12:22:26 PM 41.0646 -74.3822 235° Southwest 8,200  Level FlightAware ADS-B
Thu 12:23:03 PM 41.0500 -74.4126 238° Southwest 160 184 8,200  Level FlightAware ADS-B
Thu 12:23:18 PM 41.0439 -74.4251 237° Southwest 160 184 8,200  Level FlightAware ADS-B
Thu 12:23:34 PM 41.0376 -74.4383 238° Southwest 160 184 8,200  Level FlightAware ADS-B
Thu 12:24:00 PM 41.0274 -74.4594 237° Southwest 161 185 8,200  Level FlightAware ADS-B
Thu 12:24:55 PM 41.0060 -74.5040 238° Southwest 159 183 8,200  Level FlightAware ADS-B
Thu 12:26:17 PM 40.9770 -74.5620 236° Southwest 160 184 8,200  Level FlightAware ADS-B
Thu 12:26:30 PM 40.9920 -74.5330 56° Northeast 160 184 8,200  Level FlightAware ADS-B
Thu 12:26:58 PM 40.9590 -74.5990 237° Southwest 161 185 8,200  Level FlightAware ADS-B
Thu 12:27:25 PM 40.9460 -74.6270 238° Southwest 163 188 8,200  Level FlightAware ADS-B
Thu 12:27:33 PM 40.9420 -74.6360 240° Southwest 163 188 8,200  Level FlightAware ADS-B
Thu 12:28:01 PM 40.9310 -74.6570 235° Southwest 164 189 8,200  Level FlightAware ADS-B
Thu 12:28:32 PM 40.9180 -74.6850 238° Southwest 163 188 8,200  Level FlightAware ADS-B
Thu 12:28:51 PM 40.9100 -74.7010 237° Southwest 163 188 8,200  Level FlightAware ADS-B
Thu 12:29:31 PM 40.8940 -74.7340 237° Southwest 162 186 8,200  Level FlightAware ADS-B
Thu 12:29:59 PM 40.8830 -74.7560 237° Southwest 162 186 8,200  Level FlightAware ADS-B
Thu 12:30:28 PM 40.8698 -74.7829 237° Southwest 8,200  Level FlightAware ADS-B
Thu 12:30:40 PM 40.8647 -74.7933 237° Southwest 163 188 8,200  Level FlightAware ADS-B
Thu 12:31:05 PM 40.8546 -74.8138 237° Southwest 164 189 8,200  Level FlightAware ADS-B
Thu 12:31:23 PM 40.8472 -74.8289 237° Southwest 165 190 8,200  Level FlightAware ADS-B
Thu 12:31:48 PM 40.8368 -74.8500 237° Southwest 162 186 8,200  Level FlightAware ADS-B
Thu 12:32:16 PM 40.8256 -74.8729 237° Southwest 161 185 8,200  Level FlightAware ADS-B
Thu 12:32:47 PM 40.8130 -74.8980 236° Southwest 162 186 8,200  Level FlightAware ADS-B
Thu 12:33:15 PM 40.8010 -74.9220 237° Southwest 163 188 8,200  Level FlightAware ADS-B
Thu 12:33:46 PM 40.7900 -74.9450 238° Southwest 162 186 8,200  Level FlightAware ADS-B
Thu 12:34:26 PM 40.7730 -74.9800 237° Southwest 161 185 8,200  Level FlightAware ADS-B
Thu 12:34:38 PM 40.7673 -74.9911 236° Southwest 163 188 8,200  Level FlightAware ADS-B
Thu 12:34:54 PM 40.7610 -75.0040 237° Southwest 163 188 8,200  Level FlightAware ADS-B
Thu 12:35:13 PM 40.7528 -75.0205 237° Southwest 165 190 8,200  Level FlightAware ADS-B
Thu 12:35:33 PM 40.7446 -75.0372 237° Southwest 163 188 8,200  Level FlightAware ADS-B
Thu 12:35:50 PM 40.7378 -75.0510 237° Southwest 164 189 8,200  Level FlightAware ADS-B
Thu 12:36:06 PM 40.7313 -75.0641 237° Southwest 166 191 8,200  Level FlightAware ADS-B
Thu 12:36:22 PM 40.7244 -75.0780 237° Southwest 165 190 8,200  Level FlightAware ADS-B
Thu 12:36:37 PM 40.7181 -75.0907 237° Southwest 165 190 8,200  Level FlightAware ADS-B
Thu 12:36:55 PM 40.7106 -75.1059 237° Southwest 163 188 8,200  Level FlightAware ADS-B
Thu 12:37:10 PM 40.7044 -75.1183 237° Southwest 163 188 8,200  Level FlightAware ADS-B
Thu 12:37:25 PM 40.6982 -75.1311 237° Southwest 163 188 8,200  Level FlightAware ADS-B
Thu 12:37:42 PM 40.6914 -75.1446 236° Southwest 163 188 8,200  Level FlightAware ADS-B
Thu 12:37:57 PM 40.6851 -75.1576 237° Southwest 163 188 8,200  Level FlightAware ADS-B
Thu 12:38:14 PM 40.6783 -75.1715 237° Southwest 163 188 8,200  Level FlightAware ADS-B
Thu 12:38:30 PM 40.6719 -75.1844 237° Southwest 163 188 8,200  Level FlightAware ADS-B
Thu 12:38:48 PM 40.6644 -75.1995 237° Southwest 163 188 8,200  Level FlightAware ADS-B
Thu 12:39:21 PM 40.6510 -75.2260 236° Southwest 161 185 8,200  Level FlightAware ADS-B
Thu 12:39:33 PM 40.6460 -75.2365 238° Southwest 160 184 8,200  Level FlightAware ADS-B
Thu 12:39:55 PM 40.6371 -75.2542 236° Southwest 163 188 8,200  Level FlightAware ADS-B
Thu 12:40:12 PM 40.6300 -75.2686 237° Southwest 163 188 8,200  Level FlightAware ADS-B
Thu 12:40:27 PM 40.6237 -75.2811 236° Southwest 160 184 8,200  Level FlightAware ADS-B
Thu 12:40:46 PM 40.6159 -75.2969 237° Southwest 165 190 8,200  Level FlightAware ADS-B
Thu 12:41:02 PM 40.6095 -75.3098 237° Southwest 165 190 8,200  Level FlightAware ADS-B
Thu 12:41:18 PM 40.6025 -75.3239 237° Southwest 164 189 8,200  Level FlightAware ADS-B
Thu 12:41:33 PM 40.5963 -75.3364 237° Southwest 164 189 8,200  Level FlightAware ADS-B
Thu 12:41:50 PM 40.5892 -75.3504 236° Southwest 163 188 8,200  Level FlightAware ADS-B
Thu 12:42:09 PM 40.5815 -75.3658 237° Southwest 164 189 8,200  Level FlightAware ADS-B
Thu 12:42:29 PM 40.5733 -75.3823 237° Southwest 166 191 8,200  Level FlightAware ADS-B
Thu 12:42:46 PM 40.5659 -75.3972 237° Southwest 166 191 8,200  Level FlightAware ADS-B
Thu 12:43:04 PM 40.5586 -75.4117 236° Southwest 161 185 8,200  Level FlightAware ADS-B
Thu 12:43:23 PM 40.5507 -75.4273 236° Southwest 160 184 8,200  Level FlightAware ADS-B
Thu 12:43:49 PM 40.5402 -75.4482 237° Southwest 157 181 8,200  Level FlightAware ADS-B
Thu 12:44:06 PM 40.5336 -75.4617 237° Southwest 158 182 8,200  Level FlightAware ADS-B
Thu 12:44:23 PM 40.5269 -75.4751 237° Southwest 160 184 8,200  Level FlightAware ADS-B
Thu 12:44:39 PM 40.5203 -75.4882 236° Southwest 159 183 8,200  Level FlightAware ADS-B
Thu 12:44:56 PM 40.5136 -75.5017 237° Southwest 159 183 8,200  Level FlightAware ADS-B
Thu 12:45:11 PM 40.5075 -75.5139 237° Southwest 161 185 8,200  Level FlightAware ADS-B
Thu 12:45:32 PM 40.4989 -75.5312 237° Southwest 165 190 8,200  Level FlightAware ADS-B
Thu 12:45:47 PM 40.4923 -75.5443 236° Southwest 165 190 8,200  Level FlightAware ADS-B
Thu 12:46:01 PM 40.4863 -75.5559 236° Southwest 162 186 8,200  Level FlightAware ADS-B
Thu 12:46:15 PM 40.4808 -75.5665 236° Southwest 161 185 8,200 207 Level FlightAware ADS-B
Thu 12:46:30 PM 40.4747 -75.5791 238° Southwest 156 180 8,300 387 Climbing FlightAware ADS-B
Thu 12:46:46 PM 40.4683 -75.5917 236° Southwest 156 180 8,400 194 Climbing FlightAware ADS-B
Thu 12:47:01 PM 40.4620 -75.6036 235° Southwest 159 183 8,400  Level FlightAware ADS-B
Thu 12:47:17 PM 40.4554 -75.6159 235° Southwest 161 185 8,400  Level FlightAware ADS-B
Thu 12:47:32 PM 40.4489 -75.6281 235° Southwest 161 185 8,400 182 Level FlightAware ADS-B
Thu 12:47:50 PM 40.4410 -75.6424 234° Southwest 156 180 8,500 171 Climbing FlightAware ADS-B
Thu 12:48:07 PM 40.4341 -75.6547 234° Southwest 155 178 8,500 176 Level FlightAware ADS-B
Thu 12:48:24 PM 40.4265 -75.6681 233° Southwest 159 183 8,600  Climbing FlightAware ADS-B
Thu 12:48:47 PM 40.4156 -75.6864 232° Southwest 166 191 8,500 -136 Descending FlightAware ADS-B
Thu 12:49:08 PM 40.4068 -75.7031 235° Southwest 163 188 8,500  Level FlightAware ADS-B
Thu 12:49:25 PM 40.3990 -75.7165 233° Southwest 163 188 8,500  Level FlightAware ADS-B
Thu 12:49:43 PM 40.3900 -75.7303 229° Southwest 166 191 8,500  Level FlightAware ADS-B
Thu 12:50:01 PM 40.3811 -75.7439 229° Southwest 167 192 8,500  Level FlightAware ADS-B
Thu 12:50:09 PM 40.3770 -75.7506 231° Southwest 169 194 8,500  Level FlightAware ADS-B
Thu 12:50:16 PM 40.3739 -75.7559 232° Southwest 169 194 8,500  Level FlightAware ADS-B
Thu 12:50:26 PM 40.3696 -75.7642 236° Southwest 165 190 8,500 -214 Level FlightAware ADS-B
Thu 12:50:44 PM 40.3631 -75.7802 242° Southwest 167 192 8,400 -273 Descending FlightAware ADS-B
Thu 12:51:10 PM 40.3545 -75.8044 245° Southwest 167 192 8,300 -167 Descending FlightAware ADS-B
Thu 12:51:20 PM 40.3503 -75.8139 240° Southwest 169 194 8,300  Level FlightAware ADS-B
Thu 12:51:36 PM 40.3432 -75.8266 234° Southwest 166 191 8,300 182 Level FlightAware ADS-B
Thu 12:51:53 PM 40.3355 -75.8405 234° Southwest 161 185 8,400 182 Climbing FlightAware ADS-B
Thu 12:52:09 PM 40.3288 -75.8529 235° Southwest 159 183 8,400 -136 Level FlightAware ADS-B
Thu 12:52:37 PM 40.3180 -75.8764 239° Southwest 159 183 8,300 -158 Descending FlightAware ADS-B
Thu 12:52:47 PM 40.3143 -75.8859 243° Southwest 167 192 8,300 -176 Level FlightAware ADS-B
Thu 12:53:11 PM 40.3059 -75.9072 243° Southwest 167 192 8,200 -167 Descending FlightAware ADS-B
Thu 12:53:23 PM 40.3014 -75.9173 240° Southwest 167 192 8,200  Level FlightAware ADS-B
Thu 12:53:36 PM 40.2956 -75.9287 236° Southwest 166 191 8,200  Level FlightAware ADS-B
Thu 12:53:42 PM 40.2927 -75.9337 233° Southwest 166 191 8,200  Level FlightAware ADS-B
Thu 12:53:52 PM 40.2879 -75.9412 230° Southwest 166 191 8,200  Level FlightAware ADS-B
Thu 12:54:08 PM 40.2806 -75.9541 233° Southwest 165 190 8,200  Level FlightAware ADS-B
Thu 12:54:26 PM 40.2740 -75.9693 240° Southwest 164 189 8,200  Level FlightAware ADS-B
Thu 12:54:41 PM 40.2683 -75.9827 241° Southwest 163 188 8,200  Level FlightAware ADS-B
Thu 12:54:57 PM 40.2616 -75.9958 236° Southwest 164 189 8,200  Level FlightAware ADS-B
Thu 12:55:12 PM 40.2556 -76.0074 236° Southwest 164 189 8,200  Level FlightAware ADS-B
Thu 12:55:22 PM 40.2510 -76.0161 235° Southwest 163 188 8,200  Level FlightAware ADS-B
Thu 12:55:36 PM 40.2451 -76.0275 236° Southwest 162 186 8,200  Level FlightAware ADS-B
Thu 12:55:50 PM 40.2397 -76.0390 238° Southwest 162 186 8,200  Level FlightAware ADS-B
Thu 12:56:10 PM 40.2313 -76.0552 236° Southwest 164 189 8,200  Level FlightAware ADS-B
Thu 12:56:23 PM 40.2261 -76.0661 238° Southwest 165 190 8,200  Level FlightAware ADS-B
Thu 12:56:42 PM 40.2182 -76.0823 237° Southwest 165 190 8,200  Level FlightAware ADS-B
Thu 12:57:10 PM 40.2060 -76.1048 235° Southwest 166 191 8,200  Level FlightAware ADS-B
Thu 12:57:27 PM 40.1986 -76.1191 236° Southwest 164 189 8,200  Level FlightAware ADS-B
Thu 12:57:43 PM 40.1919 -76.1324 237° Southwest 163 188 8,200  Level FlightAware ADS-B
Thu 12:58:04 PM 40.1829 -76.1500 236° Southwest 166 191 8,200  Level FlightAware ADS-B
Thu 12:58:30 PM 40.1721 -76.1711 236° Southwest 165 190 8,200  Level FlightAware ADS-B
Thu 12:58:45 PM 40.1658 -76.1834 236° Southwest 166 191 8,200  Level FlightAware ADS-B
Thu 12:59:03 PM 40.1585 -76.1983 237° Southwest 162 186 8,200  Level FlightAware ADS-B
Thu 12:59:09 PM 40.1566 -76.2042 247° West 159 183 8,200  Level FlightAware ADS-B
Thu 12:59:21 PM 40.1532 -76.2147 247° West 162 186 8,200  Level FlightAware ADS-B
Thu 12:59:33 PM 40.1482 -76.2242 235° Southwest 167 192 8,200  Level FlightAware ADS-B
Thu 12:59:48 PM 40.1407 -76.2356 229° Southwest 164 189 8,200  Level FlightAware ADS-B
Thu 01:00:03 PM 40.1331 -76.2469 229° Southwest 167 192 8,200  Level FlightAware ADS-B
Thu 01:00:18 PM 40.1252 -76.2585 228° Southwest 167 192 8,200  Level FlightAware ADS-B
Thu 01:00:34 PM 40.1177 -76.2700 230° Southwest 165 190 8,200  Level FlightAware ADS-B
Thu 01:00:50 PM 40.1095 -76.2826 230° Southwest 168 193 8,200  Level FlightAware ADS-B
Thu 01:00:53 PM 40.1078 -76.2855 233° Southwest 167 192 8,200  Level FlightAware ADS-B
Thu 01:01:03 PM 40.1039 -76.2936 238° Southwest 164 189 8,200  Level FlightAware ADS-B
Thu 01:01:19 PM 40.0973 -76.3069 237° Southwest 165 190 8,200  Level FlightAware ADS-B
Thu 01:01:38 PM 40.0891 -76.3229 236° Southwest 166 191 8,200  Level FlightAware ADS-B
Thu 01:01:59 PM 40.0801 -76.3401 236° Southwest 166 191 8,200  Level FlightAware ADS-B
Thu 01:02:32 PM 40.0664 -76.3666 236° Southwest 163 188 8,200  Level FlightAware ADS-B
Thu 01:03:15 PM 40.0510 -76.3960 236° Southwest 159 183 8,200  Level FlightAware ADS-B
Thu 01:03:59 PM 40.0310 -76.4350 236° Southwest 158 182 8,200  Level FlightAware ADS-B
Thu 01:04:27 PM 40.0220 -76.4540 238° Southwest 158 182 8,200  Level FlightAware ADS-B
Thu 01:04:37 PM 40.0150 -76.4660 233° Southwest 159 183 8,200  Level FlightAware ADS-B
Thu 01:05:06 PM 40.0060 -76.4860 240° Southwest 159 183 8,200  Level FlightAware ADS-B
Thu 01:05:20 PM 39.9956 -76.5043 233° Southwest 166 191 8,200 463 Level FlightAware ADS-B
Thu 01:08:14 PM 39.9310 -76.6290 236° Southwest 9,900 491 Climbing FlightAware ADS-B
Thu 01:09:12 PM 39.9150 -76.6600 236° Southwest 142 163 10,100 188 Climbing FlightAware ADS-B
Thu 01:09:50 PM 39.8940 -76.7010 236° Southwest 162 186 10,200 64 Climbing FlightAware ADS-B
Thu 01:10:46 PM 39.8750 -76.7370 235° Southwest 164 189 10,200  Level FlightAware ADS-B
Thu 01:11:25 PM 39.8600 -76.7640 234° Southwest 164 189 10,200  Level FlightAware ADS-B
Thu 01:12:11 PM 39.8430 -76.7960 235° Southwest 164 189 10,200  Level FlightAware ADS-B
Thu 01:15:50 PM 39.7400 -76.9950 236° Southwest 172 198 10,200  Level FlightAware ADS-B
Thu 01:16:35 PM 39.7180 -77.0370 236° Southwest 171 197 10,200  Level FlightAware ADS-B
Thu 01:17:18 PM 39.7020 -77.0670 235° Southwest 171 197 10,200  Level FlightAware ADS-B
Thu 01:17:56 PM 39.6880 -77.0940 236° Southwest 171 197 10,200  Level FlightAware ADS-B
Thu 01:18:44 PM 39.6620 -77.1440 236° Southwest 172 198 10,200  Level FlightAware ADS-B
Thu 01:19:33 PM 39.6400 -77.1870 236° Southwest 175 201 10,200  Level FlightAware ADS-B
Thu 01:20:03 PM 39.6240 -77.2160 234° Southwest 175 201 10,200  Level FlightAware ADS-B
Thu 01:20:50 PM 39.6020 -77.2580 236° Southwest 173 199 10,200  Level FlightAware ADS-B
Thu 01:21:31 PM 39.5850 -77.2900 235° Southwest 174 200 10,200  Level FlightAware ADS-B
Thu 01:22:10 PM 39.5660 -77.3260 236° Southwest 174 200 10,200  Level FlightAware ADS-B
Thu 01:22:50 PM 39.5470 -77.3610 235° Southwest 174 200 10,200  Level FlightAware ADS-B
Thu 01:23:35 PM 39.5270 -77.4000 236° Southwest 175 201 10,200  Level FlightAware ADS-B
Thu 01:24:31 PM 39.5020 -77.4480 236° Southwest 174 200 10,200  Level FlightAware ADS-B
Thu 01:25:43 PM 39.4780 -77.4920 235° Southwest 174 200 10,200  Level FlightAware ADS-B
Thu 01:26:23 PM 39.4500 -77.5440 235° Southwest 174 200 10,200  Level FlightAware ADS-B
Thu 01:27:03 PM 39.4320 -77.5770 235° Southwest 172 198 10,200  Level FlightAware ADS-B
Thu 01:27:43 PM 39.4140 -77.6110 236° Southwest 172 198 10,200  Level FlightAware ADS-B
Thu 01:28:28 PM 39.3940 -77.6490 236° Southwest 172 198 10,200  Level FlightAware ADS-B
Thu 01:29:13 PM 39.3740 -77.6870 236° Southwest 171 197 10,200  Level FlightAware ADS-B
Thu 01:29:57 PM 39.3560 -77.7210 236° Southwest 173 199 10,200  Level FlightAware ADS-B
Thu 01:30:36 PM 39.3390 -77.7520 235° Southwest 176 203 10,200  Level FlightAware ADS-B
Thu 01:31:14 PM 39.3210 -77.7860 236° Southwest 173 199 10,200  Level FlightAware ADS-B
Thu 01:31:57 PM 39.3010 -77.8230 235° Southwest 173 199 10,200  Level FlightAware ADS-B
Thu 01:32:42 PM 39.2790 -77.8640 235° Southwest 173 199 10,200  Level FlightAware ADS-B
Thu 01:33:24 PM 39.2600 -77.9000 236° Southwest 175 201 10,200  Level FlightAware ADS-B
Thu 01:34:05 PM 39.2390 -77.9380 234° Southwest 173 199 10,200  Level FlightAware ADS-B
Thu 01:34:46 PM 39.2210 -77.9710 235° Southwest 174 200 10,200  Level FlightAware ADS-B
Thu 01:35:47 PM 39.2050 -78.0010 235° Southwest 173 199 10,200  Level FlightAware ADS-B
Thu 01:36:30 PM 39.1720 -78.0610 235° Southwest 174 200 10,200  Level FlightAware ADS-B
Thu 01:37:22 PM 39.1500 -78.1020 235° Southwest 176 203 10,200  Level FlightAware ADS-B
Thu 01:38:07 PM 39.1280 -78.1430 235° Southwest 176 203 10,200  Level FlightAware ADS-B
Thu 01:38:45 PM 39.1090 -78.1780 235° Southwest 178 205 10,200  Level FlightAware ADS-B
Thu 01:39:41 PM 39.0830 -78.2250 235° Southwest 175 201 10,200  Level FlightAware ADS-B
Thu 01:40:37 PM 39.0600 -78.2670 235° Southwest 175 201 10,200  Level FlightAware ADS-B
Thu 01:41:20 PM 39.0370 -78.3100 235° Southwest 173 199 10,200  Level FlightAware ADS-B
Thu 01:42:01 PM 39.0190 -78.3430 235° Southwest 173 199 10,200  Level FlightAware ADS-B
Thu 01:42:46 PM 38.9980 -78.3810 235° Southwest 171 197 10,200  Level FlightAware ADS-B
Thu 01:43:36 PM 38.9750 -78.4230 235° Southwest 173 199 10,200 122 Level FlightAware ADS-B
Thu 01:44:24 PM 38.9540 -78.4600 234° Southwest 163 188 10,400 214 Climbing FlightAware ADS-B
Thu 01:45:00 PM 38.9370 -78.4920 236° Southwest 168 193 10,500 63 Climbing FlightAware ADS-B
Thu 01:46:00 PM 38.9090 -78.5430 235° Southwest 173 199 10,500  Level FlightAware ADS-B
Thu 01:46:40 PM 38.8920 -78.5740 235° Southwest 170 196 10,500  Level FlightAware ADS-B
Thu 01:47:25 PM 38.8710 -78.6130 235° Southwest 171 197 10,500  Level FlightAware ADS-B
Thu 01:48:06 PM 38.8540 -78.6440 235° Southwest 171 197 10,500  Level FlightAware ADS-B
Thu 01:48:45 PM 38.8350 -78.6790 235° Southwest 172 198 10,500  Level FlightAware ADS-B
Thu 01:49:26 PM 38.8150 -78.7140 234° Southwest 172 198 10,500  Level FlightAware ADS-B
Thu 01:50:10 PM 38.7970 -78.7470 235° Southwest 173 199 10,500 151 Level FlightAware ADS-B
Thu 01:51:25 PM 38.7703 -78.8136 235° Southwest 176 203 10,800 135 Climbing Washington Center
Thu 01:52:23 PM 38.7500 -78.8686 245° Southwest 176 203 10,800  Level Washington Center
Thu 01:53:24 PM 38.7194 -78.9178 231° Southwest 176 203 10,800  Level Washington Center
Thu 01:54:25 PM 38.6908 -78.9669 233° Southwest 181 208 10,800 -50 Level Washington Center
Thu 01:55:23 PM 38.6622 -79.0189 235° Southwest 186 214 10,700 -102 Descending Washington Center
Thu 01:56:23 PM 38.6358 -79.0681 236° Southwest 186 214 10,600 -645 Descending Washington Center
Thu 01:57:24 PM 38.6050 -79.1278 237° Southwest 192 221 9,400 -1,140 Descending Washington Center
Thu 01:58:24 PM 38.5722 -79.1767 229° Southwest 192 221 8,300 -1,041 Descending Washington Center
Thu 01:59:25 PM 38.5417 -79.2256 231° Southwest 198 228 7,300 -908 Descending Washington Center
Thu 02:00:23 PM 38.5086 -79.2825 233° Southwest 191 220 6,500 -458 Descending Washington Center
Thu 02:01:23 PM 38.4947 -79.3242 247° West 178 205 6,400 -49 Descending Washington Center
Thu 02:02:25 PM 38.4700 -79.3864 243° Southwest 173 199 6,400 49 Level Washington Center
Thu 02:03:25 PM 38.4433 -79.4331 234° Southwest 168 193 6,500  Climbing Washington Center
Thu 02:04:23 PM 38.4131 -79.4711 225° Southwest 173 199 6,400 -50 Descending Washington Center
Thu 02:05:24 PM 38.3883 -79.5200 237° Southwest 173 199 6,400 49 Level Washington Center
Thu 02:06:25 PM 38.3619 -79.5664 234° Southwest 173 199 6,500 -99 Climbing Washington Center
Thu 02:07:25 PM 38.3311 -79.6125 230° Southwest 173 199 6,200 -254 Descending Washington Center
Thu 02:08:23 PM 38.3042 -79.6692 239° Southwest 173 199 6,000 -151 Descending Washington Center
Thu 02:09:24 PM 38.2817 -79.7208 241° Southwest 173 199 5,900 -50 Descending Washington Center
Thu 02:10:23 PM 38.2467 -79.7639 224° Southwest 173 199 5,900 -50 Level Washington Center
Thu 02:11:23 PM 38.2164 -79.7992 222° Southwest 173 199 5,800 -149 Descending Washington Center
Thu 02:12:24 PM 38.1817 -79.8369 221° Southwest 173 199 5,600 -98 Descending Washington Center
Thu 02:13:25 PM 38.1469 -79.8719 218° Southwest 167 192 5,600 50 Level Washington Center
Thu 02:14:25 PM 38.1244 -79.9181 238° Southwest 161 185 5,700 50 Climbing Washington Center
Thu 02:15:24 PM 38.1058 -79.9725 247° West 155 178 5,700  Level Washington Center
Thu 02:16:25 PM 38.0833 -80.0186 238° Southwest 155 178 5,700  Level Washington Center
Thu 02:17:22 PM 38.0606 -80.0647 238° Southwest 155 178 5,700  Level Washington Center
Thu 02:18:23 PM 38.0364 -80.1028 231° Southwest 160 184 5,700 -49 Level Washington Center
Thu 02:19:24 PM 38.0136 -80.1517 239° Southwest 160 184 5,600 -149 Descending Washington Center
Thu 02:20:24 PM 37.9850 -80.1919 228° Southwest 165 190 5,400 -149 Descending Washington Center
Thu 02:21:25 PM 37.9467 -80.2133 204° Southwest 153 176 5,300 -248 Descending Washington Center
Thu 02:22:25 PM 37.9019 -80.2317 198° South 153 176 4,900 -458 Descending Washington Center
Thu 02:23:23 PM 37.8656 -80.2583 210° Southwest 153 176 4,400 -254 Descending Washington Center
Thu 02:24:23 PM 37.8575 -80.3053 258° West 135 155 4,400 -150 Level Washington Center
Thu 02:25:23 PM 37.8833 -80.3358 317° Northwest 113 130 4,100 -300 Descending Washington Center

Login

Don't have an account? Register now (free) for customized features, flight alerts, and more!